Time;durP1;ratioP1;P1;durP2;ratioP2;P2;SDS_P1;SDS_P2;PMS_P1;PMS_P2;Temp;Humidity;BMP_temperature;BMP_pressure;BME280_temperature;BME280_humidity;BME280_pressure;Samples;Min_cycle;Max_cycle;Signal;HPM_P1;HPM_P2
2023/04/28 00:00:38;;;;;;;18.20;17.30;;;10.40;99.90;;;;;;5137530;27;21330;-68
2023/04/28 00:03:07;;;;;;;18.03;17.13;;;10.40;99.90;;;;;;5145412;27;20455;-68
2023/04/28 00:05:34;;;;;;;20.20;19.10;;;10.40;99.90;;;;;;5141292;27;20491;-68
2023/04/28 00:08:02;;;;;;;20.00;18.90;;;10.30;99.90;;;;;;5136449;27;20463;-68
2023/04/28 00:10:28;;;;;;;19.40;18.40;;;10.30;99.90;;;;;;5144731;27;20459;-67
2023/04/28 00:12:57;;;;;;;20.50;19.40;;;10.20;99.90;;;;;;5146753;27;20973;-67
2023/04/28 00:15:25;;;;;;;20.07;18.97;;;10.20;99.90;;;;;;5141997;27;20804;-68
2023/04/28 00:17:54;;;;;;;22.60;21.40;;;10.20;99.90;;;;;;5142516;27;20875;-68
2023/04/28 00:20:21;;;;;;;20.50;19.07;;;10.20;99.90;;;;;;5135773;27;20947;-68
2023/04/28 00:22:48;;;;;;;21.93;20.63;;;10.20;99.90;;;;;;5144519;27;20576;-67
2023/04/28 00:25:15;;;;;;;20.10;19.00;;;10.10;99.90;;;;;;5144127;27;20863;-68
2023/04/28 00:27:41;;;;;;;20.70;19.60;;;10.00;99.90;;;;;;5142926;27;20469;-68
2023/04/28 00:30:09;;;;;;;22.90;21.50;;;10.10;99.90;;;;;;5140751;27;20451;-68
2023/04/28 00:32:39;;;;;;;23.33;21.83;;;10.00;99.90;;;;;;5139964;27;20946;-68
2023/04/28 00:35:06;;;;;;;23.83;22.23;;;10.00;99.90;;;;;;5137681;27;20974;-67
2023/04/28 00:37:36;;;;;;;24.87;23.20;;;10.00;99.90;;;;;;5147904;27;20457;-68
2023/04/28 00:40:04;;;;;;;24.77;23.07;;;9.90;99.90;;;;;;5140421;27;20551;-67
2023/04/28 00:42:31;;;;;;;24.90;23.20;;;9.80;99.90;;;;;;5140626;27;20577;-68
2023/04/28 00:45:04;;;;;;;23.83;22.23;;;9.80;99.90;;;;;;5141978;27;20559;-68
2023/04/28 00:47:32;;;;;;;23.80;22.20;;;9.70;99.90;;;;;;5148204;27;20447;-67
2023/04/28 00:50:01;;;;;;;27.80;25.90;;;9.70;99.90;;;;;;5141599;27;20459;-67
2023/04/28 00:52:29;;;;;;;24.93;23.23;;;9.70;99.90;;;;;;5140599;27;20531;-67
2023/04/28 00:54:56;;;;;;;23.83;22.23;;;9.70;99.90;;;;;;5135511;27;20479;-69
2023/04/28 00:57:24;;;;;;;23.90;22.20;;;9.70;99.90;;;;;;5139470;27;20464;-66
2023/04/28 00:59:51;;;;;;;26.00;23.80;;;9.70;99.90;;;;;;5145290;27;20459;-68
2023/04/28 01:02:18;;;;;;;22.93;21.43;;;9.70;99.90;;;;;;5140762;27;20455;-68
2023/04/28 01:04:46;;;;;;;22.40;21.00;;;9.70;99.90;;;;;;5136749;27;20493;-68
2023/04/28 01:07:15;;;;;;;22.00;20.60;;;9.70;99.90;;;;;;5145136;27;20515;-68
2023/04/28 01:09:44;;;;;;;21.47;20.17;;;9.70;99.90;;;;;;5135669;27;20537;-69
2023/04/28 01:12:10;;;;;;;23.00;21.50;;;9.70;99.90;;;;;;5141485;27;20467;-67
2023/04/28 01:14:38;;;;;;;24.60;22.80;;;9.60;99.90;;;;;;5141542;27;20486;-68
2023/04/28 01:17:05;;;;;;;25.33;23.27;;;9.60;99.90;;;;;;5142818;27;20509;-67
2023/04/28 01:19:32;;;;;;;26.00;24.17;;;9.60;99.90;;;;;;5137142;27;20548;-68
2023/04/28 01:21:59;;;;;;;24.10;22.50;;;9.70;99.90;;;;;;5140293;27;20471;-69
2023/04/28 01:24:27;;;;;;;23.73;22.23;;;9.70;99.90;;;;;;5142701;27;20456;-69
2023/04/28 01:26:54;;;;;;;24.90;23.40;;;9.70;99.90;;;;;;5138325;27;20456;-69
2023/04/28 01:29:21;;;;;;;23.43;22.03;;;9.70;99.90;;;;;;5144202;27;20495;-69
2023/04/28 01:31:48;;;;;;;24.20;22.70;;;9.60;99.90;;;;;;5141140;27;20463;-69
2023/04/28 01:34:15;;;;;;;23.80;22.40;;;9.60;99.90;;;;;;5148134;27;20489;-69
2023/04/28 01:36:42;;;;;;;22.53;21.23;;;9.60;99.90;;;;;;5138913;27;20459;-69
2023/04/28 01:39:09;;;;;;;23.30;21.90;;;9.50;99.90;;;;;;5146019;27;20808;-69
2023/04/28 01:41:37;;;;;;;23.07;21.77;;;9.50;99.90;;;;;;5151595;27;20458;-69
2023/04/28 01:44:06;;;;;;;22.60;21.30;;;9.60;99.90;;;;;;5143593;27;20464;-69
2023/04/28 01:46:34;;;;;;;22.00;20.80;;;9.50;99.90;;;;;;5144423;27;21017;-69
2023/04/28 01:49:01;;;;;;;22.27;20.90;;;9.50;99.90;;;;;;5148044;27;20469;-69
2023/04/28 01:51:27;;;;;;;21.50;20.37;;;9.40;99.90;;;;;;5146435;27;20455;-69
2023/04/28 01:53:54;;;;;;;22.53;20.60;;;9.40;99.90;;;;;;5145892;27;20523;-69
2023/04/28 01:56:21;;;;;;;20.47;19.37;;;9.40;99.90;;;;;;5144828;27;20459;-69
2023/04/28 01:58:49;;;;;;;20.63;19.60;;;9.40;99.90;;;;;;5144318;27;20957;-69
2023/04/28 02:01:16;;;;;;;20.67;19.67;;;9.40;99.90;;;;;;5147653;27;20459;-70
2023/04/28 02:03:43;;;;;;;20.80;19.77;;;9.40;99.90;;;;;;5149615;27;20733;-68
2023/04/28 02:06:11;;;;;;;20.03;19.03;;;9.40;99.90;;;;;;5146438;27;20459;-67
2023/04/28 02:08:37;;;;;;;20.30;19.30;;;9.50;99.90;;;;;;5151091;27;20510;-68
2023/04/28 02:11:05;;;;;;;19.70;18.70;;;9.50;99.90;;;;;;5140732;27;20586;-67
2023/04/28 02:13:33;;;;;;;18.67;17.77;;;9.50;99.90;;;;;;5143634;27;20460;-68
2023/04/28 02:16:02;;;;;;;19.07;18.17;;;9.50;99.90;;;;;;5149657;27;20868;-68
2023/04/28 02:18:29;;;;;;;19.00;18.10;;;9.60;99.90;;;;;;5140868;27;20447;-68
2023/04/28 02:20:57;;;;;;;18.80;17.90;;;9.60;99.90;;;;;;5142702;27;20463;-68
2023/04/28 02:23:24;;;;;;;19.37;18.47;;;9.60;99.90;;;;;;5148943;27;20965;-68
2023/04/28 02:26:00;;;;;;;18.83;17.93;;;9.70;99.90;;;;;;5151494;27;20455;-67
2023/04/28 02:28:28;;;;;;;18.53;17.63;;;9.70;99.90;;;;;;5135134;27;20462;-68
2023/04/28 02:31:05;;;;;;;18.70;17.80;;;9.70;99.90;;;;;;5140568;27;20885;-69
2023/04/28 02:33:32;;;;;;;19.70;18.70;;;9.70;99.90;;;;;;5141408;27;20957;-68
2023/04/28 02:36:00;;;;;;;19.70;18.70;;;9.80;99.90;;;;;;5142132;27;20495;-68
2023/04/28 02:38:27;;;;;;;20.73;19.70;;;9.80;99.90;;;;;;5152344;27;20488;-68
2023/04/28 02:41:01;;;;;;;19.53;18.63;;;9.80;99.90;;;;;;5143223;27;20466;-68
2023/04/28 02:43:29;;;;;;;20.00;19.00;;;9.80;99.90;;;;;;5143842;27;20459;-68
2023/04/28 02:45:57;;;;;;;20.30;19.30;;;9.90;99.90;;;;;;5143520;27;20466;-68
2023/04/28 02:48:26;;;;;;;19.70;18.80;;;9.90;99.90;;;;;;5140954;27;21001;-68
2023/04/28 02:50:53;;;;;;;19.40;18.50;;;9.90;99.90;;;;;;5142018;27;20532;-67
2023/04/28 02:53:21;;;;;;;19.80;18.90;;;9.90;99.90;;;;;;5151879;27;20459;-68
2023/04/28 02:55:48;;;;;;;20.00;19.00;;;10.00;99.90;;;;;;5138030;27;20571;-68
2023/04/28 02:58:16;;;;;;;19.03;18.13;;;10.00;99.90;;;;;;5142958;27;20482;-67
2023/04/28 03:00:44;;;;;;;18.63;17.73;;;10.00;99.90;;;;;;5145627;27;20474;-68
2023/04/28 03:03:10;;;;;;;19.37;18.20;;;10.10;99.90;;;;;;5148184;27;20539;-67
2023/04/28 03:05:39;;;;;;;18.80;17.90;;;10.10;99.90;;;;;;5137211;27;20759;-67
2023/04/28 03:08:06;;;;;;;18.00;17.20;;;10.20;99.90;;;;;;5138460;27;20456;-67
2023/04/28 03:10:33;;;;;;;19.73;18.73;;;10.20;99.90;;;;;;5140902;27;20951;-67
2023/04/28 03:13:00;;;;;;;18.87;17.97;;;10.20;99.90;;;;;;5144862;27;20962;-67
2023/04/28 03:15:27;;;;;;;17.83;17.03;;;10.20;99.90;;;;;;5146937;27;20475;-67
2023/04/28 03:17:56;;;;;;;18.60;17.70;;;10.20;99.90;;;;;;5139924;27;20997;-68
2023/04/28 03:20:22;;;;;;;20.17;18.90;;;10.10;99.90;;;;;;5138403;27;20464;-67
2023/04/28 03:22:52;;;;;;;17.77;16.97;;;10.10;99.90;;;;;;5143216;27;20843;-68
2023/04/28 03:25:20;;;;;;;18.50;17.60;;;10.10;99.90;;;;;;5138793;27;20482;-68
2023/04/28 03:27:47;;;;;;;17.73;16.93;;;10.10;99.90;;;;;;5143008;27;20459;-67
2023/04/28 03:30:14;;;;;;;17.93;17.13;;;10.10;99.90;;;;;;5139424;27;20460;-68
2023/04/28 03:32:41;;;;;;;18.80;17.90;;;10.10;99.90;;;;;;5137541;27;20459;-68
2023/04/28 03:35:08;;;;;;;19.20;18.10;;;10.10;99.90;;;;;;5143757;27;20947;-68
2023/04/28 03:37:35;;;;;;;17.97;17.17;;;10.10;99.90;;;;;;5136739;27;20591;-67
2023/04/28 03:40:03;;;;;;;17.93;17.13;;;10.10;99.90;;;;;;5137640;27;20953;-68
2023/04/28 03:42:31;;;;;;;18.30;17.50;;;10.10;99.90;;;;;;5138854;27;20452;-68
2023/04/28 03:44:58;;;;;;;17.93;17.13;;;10.10;99.90;;;;;;5136977;27;20551;-68
2023/04/28 03:47:25;;;;;;;19.20;18.23;;;10.10;99.90;;;;;;5150159;27;20688;-68
2023/04/28 03:49:52;;;;;;;18.50;17.60;;;10.10;99.90;;;;;;5136683;27;20468;-67
2023/04/28 03:52:19;;;;;;;18.60;17.70;;;10.10;99.90;;;;;;5145168;27;20812;-67
2023/04/28 03:54:46;;;;;;;19.27;17.63;;;10.10;99.90;;;;;;5136921;27;20476;-67
2023/04/28 03:57:14;;;;;;;18.00;17.10;;;10.20;99.90;;;;;;5141311;27;20467;-67
2023/04/28 03:59:42;;;;;;;18.10;17.30;;;10.20;99.90;;;;;;5143887;27;20451;-67
2023/04/28 04:02:08;;;;;;;17.63;16.73;;;10.20;99.90;;;;;;5141998;27;20451;-67
2023/04/28 04:04:35;;;;;;;17.20;16.40;;;10.30;99.90;;;;;;5146588;27;20456;-67
2023/04/28 04:07:03;;;;;;;17.70;16.90;;;10.20;99.90;;;;;;5139934;27;20460;-67
2023/04/28 04:09:30;;;;;;;17.20;16.40;;;10.30;99.90;;;;;;5143526;27;20480;-67
2023/04/28 04:11:57;;;;;;;17.73;16.83;;;10.30;99.90;;;;;;5139120;27;20463;-68
2023/04/28 04:14:25;;;;;;;17.20;16.40;;;10.30;99.90;;;;;;5137070;27;20478;-68
2023/04/28 04:16:54;;;;;;;16.97;16.17;;;10.40;99.90;;;;;;5145713;27;20786;-68
2023/04/28 04:19:22;;;;;;;16.73;15.93;;;10.40;99.90;;;;;;5147077;27;20849;-67
2023/04/28 04:21:50;;;;;;;17.40;16.60;;;10.40;99.90;;;;;;5144355;27;20459;-67
2023/04/28 04:24:17;;;;;;;17.13;16.33;;;10.50;99.90;;;;;;5143003;27;20859;-67
2023/04/28 04:26:44;;;;;;;17.40;16.60;;;10.50;99.90;;;;;;5136125;27;20452;-68
2023/04/28 04:29:12;;;;;;;17.70;16.90;;;10.60;99.90;;;;;;5143779;27;20454;-68
2023/04/28 04:31:40;;;;;;;17.73;16.93;;;10.60;99.90;;;;;;5137469;27;20460;-68
2023/04/28 04:34:08;;;;;;;17.27;16.47;;;10.70;99.90;;;;;;5140534;27;20497;-67
2023/04/28 04:36:36;;;;;;;17.13;16.33;;;10.70;99.90;;;;;;5135084;27;20905;-67
2023/04/28 04:39:03;;;;;;;18.03;17.23;;;10.70;99.90;;;;;;5135164;27;20933;-67
2023/04/28 04:41:29;;;;;;;17.33;16.53;;;10.70;99.90;;;;;;5134296;27;20922;-67
2023/04/28 04:43:57;;;;;;;17.80;17.00;;;10.60;99.90;;;;;;5134810;27;20456;-67
2023/04/28 04:46:24;;;;;;;18.77;17.80;;;10.60;99.90;;;;;;5142994;27;20467;-67
2023/04/28 04:48:52;;;;;;;17.03;16.23;;;10.60;99.90;;;;;;5135066;27;20456;-67
2023/04/28 04:51:19;;;;;;;16.47;15.77;;;10.60;99.90;;;;;;5149786;27;21021;-67
2023/04/28 04:53:46;;;;;;;16.50;15.77;;;10.60;99.90;;;;;;5149552;27;20455;-69
2023/04/28 04:56:13;;;;;;;16.77;15.97;;;10.60;99.90;;;;;;5138974;27;21112;-67
2023/04/28 04:58:43;;;;;;;17.10;16.30;;;10.60;99.90;;;;;;5147938;27;20463;-67
2023/04/28 05:01:11;;;;;;;17.93;16.93;;;10.70;99.90;;;;;;5142940;27;20452;-67
2023/04/28 05:03:38;;;;;;;16.13;15.43;;;10.70;99.90;;;;;;5136217;27;20872;-67
2023/04/28 05:06:06;;;;;;;17.00;16.20;;;10.70;99.90;;;;;;5148376;27;20471;-67
2023/04/28 05:08:33;;;;;;;16.80;16.00;;;10.70;99.90;;;;;;5135735;27;20960;-67
2023/04/28 05:11:00;;;;;;;20.80;19.70;;;10.80;99.90;;;;;;5146118;27;20456;-67
2023/04/28 05:13:26;;;;;;;16.73;16.00;;;10.70;99.90;;;;;;5152455;27;21099;-67
2023/04/28 05:15:53;;;;;;;18.00;17.10;;;10.70;99.90;;;;;;5143931;27;20482;-67
2023/04/28 05:18:20;;;;;;;17.60;16.80;;;10.80;99.90;;;;;;5144323;27;20825;-67
2023/04/28 05:20:47;;;;;;;16.73;16.00;;;10.80;99.90;;;;;;5140106;27;20512;-67
2023/04/28 05:23:16;;;;;;;16.80;16.00;;;10.80;99.90;;;;;;5152839;27;20459;-67
2023/04/28 05:25:43;;;;;;;16.33;15.63;;;10.90;99.90;;;;;;5139015;27;21349;-67
2023/04/28 05:28:11;;;;;;;16.13;15.43;;;10.90;99.90;;;;;;5150293;27;20462;-67
2023/04/28 05:30:38;;;;;;;16.10;15.40;;;10.90;99.90;;;;;;5147010;27;20463;-68
2023/04/28 05:33:04;;;;;;;17.23;16.43;;;10.90;99.90;;;;;;5140139;27;20462;-69
2023/04/28 05:35:31;;;;;;;16.80;16.00;;;10.90;99.90;;;;;;5139941;27;20474;-68
2023/04/28 05:37:58;;;;;;;16.37;15.67;;;10.90;99.90;;;;;;5140119;27;20464;-68
2023/04/28 05:40:27;;;;;;;15.83;15.13;;;10.90;99.90;;;;;;5139564;27;20464;-68
2023/04/28 05:42:54;;;;;;;15.70;15.00;;;10.90;99.90;;;;;;5144975;27;20518;-68
2023/04/28 05:45:21;;;;;;;14.90;14.30;;;11.10;99.90;;;;;;5137389;27;20865;-68
2023/04/28 05:47:48;;;;;;;15.33;14.67;;;11.10;99.90;;;;;;5144126;27;20527;-69
2023/04/28 05:50:16;;;;;;;15.60;14.90;;;11.10;99.90;;;;;;5142256;27;20456;-69
2023/04/28 05:52:44;;;;;;;16.67;15.83;;;11.20;99.90;;;;;;5141439;27;20487;-68
2023/04/28 05:55:11;;;;;;;14.77;14.10;;;11.20;99.90;;;;;;5144379;27;20459;-69
2023/04/28 05:57:39;;;;;;;16.30;15.50;;;11.10;99.90;;;;;;5142897;27;20859;-68
2023/04/28 06:00:07;;;;;;;15.00;14.30;;;11.10;99.90;;;;;;5142504;27;20543;-68
2023/04/28 06:02:34;;;;;;;13.77;13.20;;;11.20;99.90;;;;;;5144563;27;20988;-68
2023/04/28 06:05:01;;;;;;;13.50;13.00;;;11.10;99.90;;;;;;5145593;27;20443;-67
2023/04/28 06:07:30;;;;;;;12.70;12.20;;;11.10;99.90;;;;;;5148721;27;20451;-69
2023/04/28 06:09:58;;;;;;;15.20;14.40;;;11.10;99.90;;;;;;5136659;27;20507;-68
2023/04/28 06:12:25;;;;;;;11.93;11.43;;;11.20;99.90;;;;;;5143472;27;20605;-69
2023/04/28 06:14:54;;;;;;;12.70;12.10;;;11.20;99.90;;;;;;5136889;27;20470;-67
2023/04/28 06:17:21;;;;;;;11.17;10.77;;;11.30;99.90;;;;;;5137980;27;20854;-68
2023/04/28 06:19:50;;;;;;;11.33;10.93;;;11.30;99.90;;;;;;5138012;27;20516;-66
2023/04/28 06:22:17;;;;;;;11.07;10.67;;;11.50;99.90;;;;;;5150122;27;20463;-67
2023/04/28 06:24:44;;;;;;;11.37;10.97;;;11.60;99.90;;;;;;5150394;27;20487;-68
2023/04/28 06:27:12;;;;;;;10.70;10.30;;;11.60;99.90;;;;;;5146882;27;21154;-66
2023/04/28 06:29:38;;;;;;;10.87;10.47;;;11.80;99.90;;;;;;5142162;27;20873;-67
2023/04/28 06:32:08;;;;;;;12.77;12.17;;;11.90;99.90;;;;;;5137563;27;20462;-67
2023/04/28 06:34:36;;;;;;;15.27;14.57;;;12.00;99.90;;;;;;5131787;27;20639;-67
2023/04/28 06:37:03;;;;;;;17.20;15.73;;;12.00;99.90;;;;;;5147541;27;20487;-67
2023/04/28 06:39:30;;;;;;;15.67;14.67;;;11.90;99.90;;;;;;5138608;27;20809;-67
2023/04/28 06:41:58;;;;;;;16.13;15.23;;;11.90;99.90;;;;;;5144422;27;20471;-67
2023/04/28 06:44:26;;;;;;;15.30;14.60;;;11.90;99.90;;;;;;5151168;27;20464;-67
2023/04/28 06:46:53;;;;;;;17.37;16.47;;;11.80;99.90;;;;;;5138034;27;20540;-67
2023/04/28 06:49:23;;;;;;;16.50;15.70;;;11.70;99.90;;;;;;5150552;27;20974;-68
2023/04/28 06:51:50;;;;;;;18.70;16.87;;;11.60;99.90;;;;;;5146612;27;20515;-68
2023/04/28 06:54:17;;;;;;;16.67;15.77;;;11.60;99.90;;;;;;5151358;27;20455;-68
2023/04/28 06:56:44;;;;;;;15.70;14.90;;;11.50;99.90;;;;;;5139695;27;20491;-68
2023/04/28 06:59:11;;;;;;;15.70;14.90;;;11.70;99.90;;;;;;5137402;27;20756;-68
2023/04/28 07:01:38;;;;;;;13.40;12.80;;;11.70;99.90;;;;;;5143203;27;20503;-68
2023/04/28 07:04:05;;;;;;;12.50;11.90;;;11.80;99.90;;;;;;5141442;27;20859;-68
2023/04/28 07:06:34;;;;;;;12.50;11.70;;;11.80;99.90;;;;;;5134622;27;20451;-68
2023/04/28 07:09:01;;;;;;;11.10;10.60;;;12.00;99.90;;;;;;5141786;27;20562;-68
2023/04/28 07:11:29;;;;;;;9.60;9.30;;;12.00;99.90;;;;;;5138448;27;20464;-68
2023/04/28 07:13:56;;;;;;;10.67;10.27;;;12.20;99.90;;;;;;5136006;27;20463;-68
2023/04/28 07:16:22;;;;;;;8.90;8.60;;;12.40;99.90;;;;;;5145557;27;20523;-68
2023/04/28 07:18:49;;;;;;;9.93;9.37;;;12.40;99.90;;;;;;5137776;27;20467;-68
2023/04/28 07:21:17;;;;;;;10.90;10.40;;;12.50;99.90;;;;;;5140369;27;20472;-68
2023/04/28 07:23:47;;;;;;;9.37;9.07;;;12.60;99.90;;;;;;5147386;27;20472;-69
2023/04/28 07:26:15;;;;;;;14.07;13.43;;;12.60;99.90;;;;;;5140423;27;20557;-67
2023/04/28 07:28:43;;;;;;;14.07;13.47;;;12.70;99.90;;;;;;5139504;27;20468;-68
2023/04/28 07:31:10;;;;;;;13.77;13.17;;;12.60;99.90;;;;;;5141517;27;20469;-68
2023/04/28 07:33:36;;;;;;;14.47;13.80;;;12.70;99.90;;;;;;5141100;27;20459;-68
2023/04/28 07:36:04;;;;;;;13.77;13.17;;;12.80;99.90;;;;;;5149910;27;20507;-68
2023/04/28 07:38:33;;;;;;;14.03;13.33;;;12.90;99.90;;;;;;5138749;27;20545;-68
2023/04/28 07:41:03;;;;;;;14.77;13.97;;;12.90;99.90;;;;;;5129119;27;20521;-69
2023/04/28 07:43:30;;;;;;;13.50;12.90;;;12.80;99.90;;;;;;5139506;27;20508;-68
2023/04/28 07:45:58;;;;;;;13.40;12.77;;;12.90;99.90;;;;;;5127145;27;20533;-68
2023/04/28 07:48:26;;;;;;;13.03;12.53;;;12.90;99.90;;;;;;5138083;27;20469;-69
2023/04/28 07:50:52;;;;;;;11.43;11.03;;;13.00;99.90;;;;;;5135325;27;20551;-68
2023/04/28 07:53:19;;;;;;;11.37;10.87;;;13.20;99.90;;;;;;5133859;27;20452;-69
2023/04/28 07:55:46;;;;;;;10.30;9.80;;;13.50;99.90;;;;;;5139683;27;20954;-68
2023/04/28 07:58:15;;;;;;;10.43;10.03;;;13.60;99.90;;;;;;5143581;27;21003;-68
2023/04/28 08:00:42;;;;;;;10.23;9.73;;;13.90;99.90;;;;;;5139362;27;20452;-68
2023/04/28 08:03:09;;;;;;;9.67;9.27;;;13.90;99.90;;;;;;5133326;27;20512;-69
2023/04/28 08:05:35;;;;;;;9.60;9.20;;;14.10;99.90;;;;;;5136010;27;20467;-68
2023/04/28 08:08:02;;;;;;;9.63;9.23;;;14.10;99.90;;;;;;5137108;27;20485;-69
2023/04/28 08:10:29;;;;;;;9.80;9.40;;;14.30;99.90;;;;;;5146028;27;20447;-68
2023/04/28 08:12:56;;;;;;;10.37;9.97;;;14.40;99.90;;;;;;5138754;27;20449;-67
2023/04/28 08:15:26;;;;;;;10.87;10.37;;;14.50;99.90;;;;;;5145566;27;20922;-68
2023/04/28 08:17:53;;;;;;;9.80;9.30;;;14.50;99.90;;;;;;5142634;27;20491;-68
2023/04/28 08:20:21;;;;;;;10.50;9.80;;;14.90;99.90;;;;;;5137456;27;20456;-68
2023/04/28 08:22:49;;;;;;;10.20;9.80;;;15.20;99.90;;;;;;5137683;27;20469;-68
2023/04/28 08:25:17;;;;;;;11.23;10.70;;;15.50;99.90;;;;;;5138773;27;20490;-68
2023/04/28 08:27:44;;;;;;;12.33;11.47;;;15.70;99.90;;;;;;5144195;27;20534;-68
2023/04/28 08:30:11;;;;;;;11.07;10.67;;;15.80;99.90;;;;;;5136320;27;20962;-68
2023/04/28 08:32:39;;;;;;;10.10;9.70;;;15.80;99.90;;;;;;5142646;27;20964;-68
2023/04/28 08:35:08;;;;;;;10.40;10.00;;;15.70;99.90;;;;;;5141564;27;20462;-68
2023/04/28 08:37:35;;;;;;;12.97;12.30;;;15.70;99.90;;;;;;5129956;27;20482;-69
2023/04/28 08:40:08;;;;;;;15.53;14.83;;;15.60;99.90;;;;;;5138159;27;20937;-68
2023/04/28 08:42:37;;;;;;;12.93;12.33;;;15.50;99.90;;;;;;5140457;27;20528;-68
2023/04/28 08:45:05;;;;;;;13.40;12.80;;;15.30;99.90;;;;;;5137042;27;20910;-68
2023/04/28 08:47:35;;;;;;;13.57;12.97;;;15.00;99.90;;;;;;5134971;27;20535;-68
2023/04/28 08:50:06;;;;;;;12.57;12.07;;;15.00;99.90;;;;;;5136266;27;20990;-69
2023/04/28 08:52:34;;;;;;;14.30;13.50;;;15.10;99.90;;;;;;5130251;27;21062;-68
2023/04/28 08:55:05;;;;;;;13.53;12.93;;;15.20;99.90;;;;;;5138896;27;20909;-69
2023/04/28 08:57:35;;;;;;;13.57;12.97;;;15.30;99.90;;;;;;5143829;27;20540;-68
2023/04/28 09:00:02;;;;;;;12.30;11.80;;;15.30;99.90;;;;;;5133598;27;20452;-68
2023/04/28 09:02:29;;;;;;;13.00;12.40;;;15.50;99.90;;;;;;5136020;27;20456;-68
2023/04/28 09:04:56;;;;;;;12.33;11.80;;;15.50;99.90;;;;;;5138984;27;20458;-68
2023/04/28 09:07:24;;;;;;;11.20;10.80;;;15.40;99.90;;;;;;5135129;27;20460;-68
2023/04/28 09:10:18;;;;;;;12.10;11.60;;;15.50;99.90;;;;;;5130796;27;20491;-68
2023/04/28 09:12:45;;;;;;;12.23;11.73;;;15.30;99.90;;;;;;5141904;27;20458;-68
2023/04/28 09:15:27;;;;;;;11.80;11.30;;;15.30;99.90;;;;;;5140812;27;20443;-68
2023/04/28 09:17:54;;;;;;;12.10;11.60;;;15.40;99.90;;;;;;5137075;27;20494;-68
2023/04/28 09:20:21;;;;;;;12.00;11.50;;;15.30;99.90;;;;;;5131950;27;20455;-67
2023/04/28 09:22:50;;;;;;;13.13;12.63;;;15.30;99.90;;;;;;5142307;27;20614;-68
2023/04/28 09:25:20;;;;;;;12.33;11.83;;;15.20;99.90;;;;;;5134351;27;20463;-67
2023/04/28 09:27:48;;;;;;;13.37;12.77;;;15.30;99.90;;;;;;5136691;27;20451;-68
2023/04/28 09:30:16;;;;;;;13.10;12.60;;;15.30;99.90;;;;;;5140592;27;20464;-68
2023/04/28 09:32:43;;;;;;;14.43;13.83;;;15.20;99.90;;;;;;5136581;27;20458;-69
2023/04/28 09:35:10;;;;;;;15.53;14.83;;;15.10;99.90;;;;;;5138877;27;20497;-67
2023/04/28 09:37:37;;;;;;;16.37;15.67;;;15.20;99.90;;;;;;5146576;27;20934;-68
2023/04/28 09:40:08;;;;;;;16.00;15.30;;;15.30;99.90;;;;;;5141044;27;20455;-68
2023/04/28 09:42:36;;;;;;;14.93;14.27;;;15.30;99.90;;;;;;5141843;27;20546;-68
2023/04/28 09:45:04;;;;;;;16.20;15.30;;;15.60;99.90;;;;;;5128919;27;20461;-68
2023/04/28 09:47:34;;;;;;;15.07;14.40;;;15.90;99.90;;;;;;5146294;27;20458;-68
2023/04/28 09:50:02;;;;;;;18.17;16.70;;;16.10;99.90;;;;;;5145724;27;20458;-68
2023/04/28 09:52:29;;;;;;;16.33;15.53;;;16.00;99.90;;;;;;5141420;27;20641;-69
2023/04/28 09:54:57;;;;;;;14.70;14.10;;;15.70;99.90;;;;;;5133178;27;20942;-68
2023/04/28 09:57:25;;;;;;;14.10;13.60;;;15.80;99.90;;;;;;5130671;27;20475;-68
2023/04/28 09:59:53;;;;;;;14.50;13.90;;;15.60;99.90;;;;;;5134343;27;20467;-69
2023/04/28 10:02:23;;;;;;;16.20;14.90;;;15.70;99.90;;;;;;5142465;27;20487;-68
2023/04/28 10:04:51;;;;;;;17.30;16.03;;;15.50;99.90;;;;;;5144834;27;20953;-69
2023/04/28 10:07:19;;;;;;;15.50;14.80;;;15.20;99.90;;;;;;5142416;27;20452;-69
2023/04/28 10:09:49;;;;;;;14.87;14.13;;;15.10;99.90;;;;;;5143546;27;20474;-68
2023/04/28 10:12:17;;;;;;;15.13;14.13;;;15.10;99.90;;;;;;5147634;27;20455;-68
2023/04/28 10:14:49;;;;;;;13.80;13.00;;;15.00;99.90;;;;;;5144364;27;20472;-68
2023/04/28 10:17:17;;;;;;;11.13;10.73;;;14.90;99.90;;;;;;5141352;27;20504;-69
2023/04/28 10:19:45;;;;;;;10.20;9.80;;;15.00;99.90;;;;;;5148236;27;20454;-69
2023/04/28 10:22:24;;;;;;;10.23;9.53;;;14.90;99.90;;;;;;5149769;27;20454;-69
2023/04/28 10:25:11;;;;;;;7.17;6.87;;;15.10;99.90;;;;;;5143185;27;20482;-69
2023/04/28 10:27:40;;;;;;;5.37;5.07;;;15.30;99.90;;;;;;5140076;27;20709;-69
2023/04/28 10:30:12;;;;;;;4.13;3.93;;;15.40;99.90;;;;;;5144238;27;20890;-69
2023/04/28 10:32:40;;;;;;;4.20;4.00;;;15.60;99.90;;;;;;5145791;27;20551;-69
2023/04/28 10:35:43;;;;;;;2.60;2.50;;;16.00;99.90;;;;;;5142856;27;20460;-69
2023/04/28 10:38:11;;;;;;;2.93;2.73;;;16.40;99.90;;;;;;5145528;27;20518;-69
2023/04/28 10:40:39;;;;;;;2.60;2.50;;;16.60;99.90;;;;;;5141923;27;20529;-69
2023/04/28 10:43:07;;;;;;;2.87;2.77;;;16.70;99.90;;;;;;5139472;27;20462;-68
2023/04/28 10:46:01;;;;;;;3.83;3.63;;;16.80;99.90;;;;;;5145173;27;20505;-68
2023/04/28 10:48:52;;;;;;;3.43;3.33;;;16.60;99.90;;;;;;5147284;27;21044;-68
2023/04/28 10:51:32;;;;;;;4.90;4.60;;;16.60;99.90;;;;;;5129551;27;20462;-68
2023/04/28 10:54:16;;;;;;;4.93;4.60;;;16.70;99.90;;;;;;5143977;27;20451;-68
2023/04/28 10:57:20;;;;;;;5.00;4.77;;;16.70;99.90;;;;;;5136768;27;20553;-69
2023/04/28 10:59:47;;;;;;;4.37;4.17;;;16.70;99.90;;;;;;5149697;27;20465;-68
2023/04/28 11:02:45;;;;;;;5.70;5.20;;;17.00;99.90;;;;;;5144338;27;20458;-69
2023/04/28 11:05:13;;;;;;;6.33;5.73;;;17.40;99.90;;;;;;5097218;27;21031;-69
2023/04/28 11:07:41;;;;;;;6.77;6.27;;;17.80;99.90;;;;;;5143128;27;20707;-68
2023/04/28 11:10:08;;;;;;;6.03;5.73;;;18.20;99.90;;;;;;5142785;27;20487;-67
2023/04/28 11:12:36;;;;;;;7.30;7.00;;;18.70;99.90;;;;;;5147359;27;20451;-67
2023/04/28 11:15:14;;;;;;;9.70;9.20;;;19.20;99.90;;;;;;5145629;27;20459;-68
2023/04/28 11:17:44;;;;;;;9.60;9.20;;;19.10;99.90;;;;;;5137718;27;21017;-67
2023/04/28 11:20:14;;;;;;;11.43;10.93;;;19.10;99.90;;;;;;5140645;27;20553;-67
2023/04/28 11:22:41;;;;;;;10.63;10.23;;;19.40;99.90;;;;;;5140938;27;20546;-67
2023/04/28 11:25:09;;;;;;;11.20;10.73;;;19.90;99.90;;;;;;5132021;27;20976;-68
2023/04/28 11:27:36;;;;;;;11.27;10.77;;;19.70;99.90;;;;;;5146706;27;20926;-68
2023/04/28 11:30:05;;;;;;;11.77;11.27;;;19.80;99.90;;;;;;5145150;27;20459;-68
2023/04/28 11:32:33;;;;;;;12.43;11.90;;;19.70;99.90;;;;;;5142747;27;20447;-68
2023/04/28 11:35:03;;;;;;;12.27;11.67;;;19.20;99.90;;;;;;5136025;27;20452;-68
2023/04/28 11:37:29;;;;;;;11.10;10.70;;;19.30;99.90;;;;;;5144408;27;20559;-68
2023/04/28 11:39:57;;;;;;;11.43;11.03;;;19.30;99.90;;;;;;5144788;27;20458;-68
2023/04/28 11:42:24;;;;;;;12.13;11.63;;;19.50;99.90;;;;;;5141527;27;21281;-67
2023/04/28 11:44:53;;;;;;;12.07;11.40;;;19.90;99.90;;;;;;5149008;27;20466;-68
2023/04/28 11:47:29;;;;;;;12.20;11.67;;;19.80;99.90;;;;;;5139489;27;20459;-68
2023/04/28 11:49:56;;;;;;;13.40;12.80;;;20.00;99.90;;;;;;5140780;27;20554;-68
2023/04/28 11:52:26;;;;;;;13.97;13.23;;;20.00;99.90;;;;;;5142153;27;20452;-68
2023/04/28 11:54:56;;;;;;;13.60;12.90;;;19.80;99.90;;;;;;5135607;27;20463;-69
2023/04/28 11:57:24;;;;;;;12.93;12.43;;;19.60;99.90;;;;;;5143581;27;20479;-68
2023/04/28 11:59:51;;;;;;;12.73;12.23;;;20.00;99.90;;;;;;5138288;27;20454;-69
2023/04/28 12:02:26;;;;;;;12.90;12.40;;;20.50;99.90;;;;;;5140141;27;20460;-66
2023/04/28 12:04:53;;;;;;;14.80;14.00;;;21.30;99.90;;;;;;5140277;27;20465;-67
2023/04/28 12:07:20;;;;;;;14.90;14.20;;;22.00;99.90;;;;;;5145326;27;20504;-67
2023/04/28 12:10:10;;;;;;;14.90;14.07;;;22.70;99.90;;;;;;5134525;27;20988;-67
2023/04/28 12:12:36;;;;;;;15.03;14.30;;;22.80;99.90;;;;;;5142339;27;20451;-67
2023/04/28 12:15:05;;;;;;;15.60;14.90;;;22.70;99.90;;;;;;5141381;27;21195;-68
2023/04/28 12:17:35;;;;;;;16.13;15.33;;;22.20;99.90;;;;;;5140146;27;20534;-67
2023/04/28 12:20:05;;;;;;;15.50;14.70;;;22.10;99.90;;;;;;5135093;27;20543;-67
2023/04/28 12:22:44;;;;;;;16.00;15.30;;;22.00;99.90;;;;;;5144237;27;20448;-68
2023/04/28 12:25:15;;;;;;;15.20;14.50;;;22.00;99.90;;;;;;5141371;27;21005;-69
2023/04/28 12:27:58;;;;;;;15.03;14.33;;;22.10;99.90;;;;;;5143017;27;20466;-68
2023/04/28 12:30:26;;;;;;;15.23;14.53;;;22.70;99.90;;;;;;5139328;27;20455;-69
2023/04/28 12:32:54;;;;;;;16.10;15.37;;;23.00;99.90;;;;;;5143424;27;20455;-69
2023/04/28 12:35:22;;;;;;;14.40;13.80;;;22.50;99.90;;;;;;5134897;27;20813;-67
2023/04/28 12:37:51;;;;;;;14.73;13.90;;;22.10;99.90;;;;;;5136546;27;20669;-68